createdAt,value
2017-03-01T00:00:43.817Z,0
2017-03-01T00:01:54.538Z,0
2017-03-01T00:03:05.227Z,0
2017-03-01T00:04:15.931Z,0
2017-03-01T00:05:26.229Z,0
2017-03-01T00:06:36.920Z,0
2017-03-01T00:07:47.934Z,0
2017-03-01T00:08:58.640Z,0
2017-03-01T00:10:08.950Z,0
2017-03-01T00:11:19.649Z,0
2017-03-01T00:12:30.358Z,0
2017-03-01T00:13:41.073Z,0
2017-03-01T00:14:51.798Z,0
2017-03-01T00:16:02.488Z,0
2017-03-01T00:17:13.213Z,0
2017-03-01T00:18:23.913Z,0
2017-03-01T00:19:34.240Z,0
2017-03-01T00:20:44.957Z,0
2017-03-01T00:21:55.663Z,0
2017-03-01T00:23:06.362Z,0
2017-03-01T00:24:17.072Z,0
2017-03-01T00:25:27.771Z,0
2017-03-01T00:26:38.458Z,0
2017-03-01T00:27:49.172Z,0
2017-03-01T00:28:59.874Z,0
2017-03-01T00:30:10.579Z,0
2017-03-01T00:31:21.277Z,0
2017-03-01T00:32:31.977Z,0
2017-03-01T00:33:42.287Z,0
2017-03-01T00:34:53.003Z,0
2017-03-01T00:36:03.716Z,0
2017-03-01T00:37:14.413Z,0
2017-03-01T00:38:25.132Z,0
2017-03-01T00:39:35.031Z,0
2017-03-01T00:40:45.326Z,0
2017-03-01T00:41:56.038Z,0
2017-03-01T00:43:06.733Z,0
2017-03-01T00:44:17.439Z,0
2017-03-01T00:45:28.157Z,0
2017-03-01T00:46:38.452Z,0
2017-03-01T00:47:49.172Z,0
2017-03-01T00:49:03.707Z,0
2017-03-01T00:50:14.397Z,0
2017-03-01T00:51:25.110Z,0
2017-03-01T00:52:35.827Z,0
2017-03-01T00:53:46.540Z,0
2017-03-01T00:54:57.240Z,0
2017-03-01T00:56:07.545Z,0
2017-03-01T00:57:18.251Z,0
2017-03-01T00:58:28.942Z,0
2017-03-01T00:59:38.881Z,0
2017-03-01T01:00:49.581Z,0
2017-03-01T01:02:00.282Z,0
2017-03-01T01:03:10.978Z,0
2017-03-01T01:04:21.684Z,0
2017-03-01T01:05:31.997Z,0
2017-03-01T01:06:42.725Z,0
2017-03-01T01:07:53.034Z,0
2017-03-01T01:09:03.735Z,0
2017-03-01T01:10:14.045Z,0
2017-03-01T01:11:24.754Z,0
2017-03-01T01:12:35.448Z,0
2017-03-01T01:13:46.174Z,0
2017-03-01T01:14:56.896Z,0
2017-03-01T01:16:07.586Z,0
2017-03-01T01:17:17.893Z,0
2017-03-01T01:18:28.218Z,0
2017-03-01T01:19:38.911Z,0
2017-03-01T01:20:49.623Z,0
2017-03-01T01:21:59.940Z,0
2017-03-01T01:23:10.636Z,0
2017-03-01T01:24:21.347Z,0
2017-03-01T01:25:32.042Z,0
2017-03-01T01:26:42.759Z,0
2017-03-01T01:27:53.075Z,0
2017-03-01T01:29:03.795Z,0
2017-03-01T01:30:14.502Z,0
2017-03-01T01:31:25.211Z,0
2017-03-01T01:32:35.937Z,0
2017-03-01T01:33:46.239Z,0
2017-03-01T01:34:56.945Z,0
2017-03-01T01:36:07.663Z,0
2017-03-01T01:37:18.364Z,0
2017-03-01T01:38:29.076Z,0
2017-03-01T01:39:39.778Z,0
2017-03-01T01:40:50.486Z,0
2017-03-01T01:42:01.205Z,0
2017-03-01T01:43:11.897Z,0
2017-03-01T01:44:22.605Z,0
2017-03-01T01:45:33.313Z,0
2017-03-01T01:46:43.629Z,0
2017-03-01T01:47:54.351Z,0
2017-03-01T01:49:05.059Z,0
2017-03-01T01:50:15.751Z,0
2017-03-01T01:51:26.446Z,0
2017-03-01T01:52:36.745Z,0
2017-03-01T01:53:47.470Z,0
2017-03-01T01:54:57.770Z,0
2017-03-01T01:56:08.484Z,0
2017-03-01T01:57:18.808Z,0
2017-03-01T01:58:29.114Z,0
2017-03-01T01:59:39.835Z,0
2017-03-01T02:00:50.535Z,0
2017-03-01T02:02:01.229Z,0
2017-03-01T02:03:11.954Z,0
2017-03-01T02:04:22.648Z,0
2017-03-01T02:05:32.962Z,0
2017-03-01T02:06:43.279Z,0
2017-03-01T02:07:53.986Z,0
2017-03-01T02:09:04.701Z,0
2017-03-01T02:10:15.386Z,0
2017-03-01T02:11:26.132Z,0
2017-03-01T02:12:36.838Z,0
2017-03-01T02:13:47.548Z,0
2017-03-01T02:14:57.863Z,0
2017-03-01T02:16:08.200Z,0
2017-03-01T02:17:18.901Z,0
2017-03-01T02:18:29.609Z,0
2017-03-01T02:19:40.326Z,0
2017-03-01T02:20:51.014Z,0
2017-03-01T02:22:01.726Z,0
2017-03-01T02:23:12.443Z,0
2017-03-01T02:24:23.158Z,0
2017-03-01T02:25:33.457Z,0
2017-03-01T02:26:44.191Z,0
2017-03-01T02:27:54.898Z,0
2017-03-01T02:29:05.628Z,0
2017-03-01T02:30:16.323Z,0
2017-03-01T02:31:26.643Z,0
2017-03-01T02:32:37.337Z,0
2017-03-01T02:33:48.060Z,0
2017-03-01T02:34:58.778Z,0
2017-03-01T02:36:09.484Z,0
2017-03-01T02:37:20.199Z,0
2017-03-01T02:38:30.523Z,0
2017-03-01T02:39:41.228Z,0
2017-03-01T02:40:51.947Z,0
2017-03-01T02:42:02.660Z,0
2017-03-01T02:43:12.964Z,0
2017-03-01T02:44:23.697Z,0
2017-03-01T02:45:34.416Z,0
2017-03-01T02:46:45.130Z,0
2017-03-01T02:47:55.431Z,0
2017-03-01T02:49:06.149Z,0
2017-03-01T02:50:16.463Z,0
2017-03-01T02:51:26.764Z,0
2017-03-01T02:52:37.574Z,0
2017-03-01T02:53:48.299Z,0
2017-03-01T02:54:59.025Z,0
2017-03-01T02:56:09.754Z,0
2017-03-01T02:57:20.458Z,0
2017-03-01T02:58:31.182Z,0
2017-03-01T02:59:41.908Z,0
2017-03-01T03:00:52.619Z,0
2017-03-01T03:02:02.934Z,0
2017-03-01T03:03:13.657Z,0
2017-03-01T03:04:24.369Z,0
2017-03-01T03:05:35.065Z,0
2017-03-01T03:06:45.772Z,0
2017-03-01T03:07:56.475Z,0
2017-03-01T03:09:07.182Z,0
2017-03-01T03:10:17.896Z,0
2017-03-01T03:11:28.221Z,0
2017-03-01T03:12:38.929Z,0
2017-03-01T03:13:49.634Z,0
2017-03-01T03:15:00.361Z,0
2017-03-01T03:16:10.672Z,0
2017-03-01T03:17:21.400Z,0
2017-03-01T03:18:31.703Z,0
2017-03-01T03:19:42.406Z,0
2017-03-01T03:20:53.103Z,0
2017-03-01T03:22:03.810Z,0
2017-03-01T03:23:14.538Z,0
2017-03-01T03:24:25.233Z,0
2017-03-01T03:25:35.542Z,0
2017-03-01T03:26:45.853Z,0
2017-03-01T03:27:56.564Z,0
2017-03-01T03:29:07.290Z,0
2017-03-01T03:30:18.003Z,0
2017-03-01T03:31:28.315Z,0
2017-03-01T03:32:39.023Z,0
2017-03-01T03:33:49.737Z,0
2017-03-01T03:35:00.444Z,0
2017-03-01T03:36:11.180Z,0
2017-03-01T03:37:21.882Z,0
2017-03-01T03:38:32.195Z,0
2017-03-01T03:39:42.911Z,0
2017-03-01T03:40:53.620Z,0
2017-03-01T03:42:04.320Z,0
2017-03-01T03:43:14.627Z,0
2017-03-01T03:44:25.328Z,0
2017-03-01T03:45:36.043Z,0
2017-03-01T03:46:46.754Z,0
2017-03-01T03:47:57.476Z,0
2017-03-01T03:49:08.183Z,0
2017-03-01T03:50:18.899Z,0
2017-03-01T03:51:29.195Z,0
2017-03-01T03:52:38.712Z,0
2017-03-01T03:53:49.419Z,0
2017-03-01T03:54:59.745Z,0
2017-03-01T03:56:10.473Z,0
2017-03-01T03:57:21.196Z,0
2017-03-01T03:58:31.913Z,0
2017-03-01T03:59:42.630Z,0
2017-03-01T04:00:53.343Z,0
2017-03-01T04:02:03.654Z,0
2017-03-01T04:03:13.953Z,0
2017-03-01T04:04:24.647Z,0
2017-03-01T04:05:35.366Z,0
2017-03-01T04:06:46.073Z,0
2017-03-01T04:07:56.769Z,0
2017-03-01T04:09:07.472Z,0
2017-03-01T04:10:18.187Z,0
2017-03-01T04:11:28.892Z,0
2017-03-01T04:12:39.597Z,0
2017-03-01T04:13:49.896Z,0
2017-03-01T04:15:00.605Z,0
2017-03-01T04:16:10.924Z,0
2017-03-01T04:17:21.655Z,0
2017-03-01T04:18:31.950Z,0
2017-03-01T04:19:42.662Z,0
2017-03-01T04:20:53.376Z,0
2017-03-01T04:22:04.096Z,0
2017-03-01T04:23:14.809Z,0
2017-03-01T04:24:25.517Z,0
2017-03-01T04:25:36.242Z,0
2017-03-01T04:26:46.558Z,0
2017-03-01T04:27:56.853Z,0
2017-03-01T04:29:07.560Z,0
2017-03-01T04:30:18.281Z,0
2017-03-01T04:31:28.579Z,0
2017-03-01T04:32:39.302Z,0
2017-03-01T04:33:50.006Z,0
2017-03-01T04:35:00.701Z,0
2017-03-01T04:36:11.396Z,0
2017-03-01T04:37:22.096Z,0
2017-03-01T04:38:32.004Z,0
2017-03-01T04:39:42.709Z,0
2017-03-01T04:40:53.425Z,0
2017-03-01T04:42:03.350Z,0
2017-03-01T04:43:14.050Z,0
2017-03-01T04:44:24.359Z,0
2017-03-01T04:45:35.081Z,0
2017-03-01T04:46:45.770Z,0
2017-03-01T04:47:56.494Z,0
2017-03-01T04:49:07.201Z,0
2017-03-01T04:50:17.902Z,0
2017-03-01T04:51:28.634Z,0
2017-03-01T04:52:39.328Z,0
2017-03-01T04:53:50.029Z,0
2017-03-01T04:55:00.740Z,0
2017-03-01T04:56:11.464Z,0
2017-03-01T04:57:22.177Z,0
2017-03-01T04:58:32.475Z,0
2017-03-01T04:59:43.178Z,0
2017-03-01T05:00:53.894Z,0
2017-03-01T05:02:04.599Z,0
2017-03-01T05:03:15.300Z,0
2017-03-01T05:04:25.606Z,0
2017-03-01T05:05:36.326Z,0
2017-03-01T05:06:47.062Z,0
2017-03-01T05:07:57.786Z,0
2017-03-01T05:09:08.104Z,0
2017-03-01T05:10:18.826Z,0
2017-03-01T05:11:29.592Z,0
2017-03-01T05:12:39.923Z,0
2017-03-01T05:13:50.223Z,0
2017-03-01T05:15:00.924Z,0
2017-03-01T05:16:11.626Z,0
2017-03-01T05:17:22.332Z,0
2017-03-01T05:18:33.035Z,0
2017-03-01T05:19:43.755Z,0
2017-03-01T05:20:54.052Z,0
2017-03-01T05:22:04.350Z,0
2017-03-01T05:23:15.067Z,0
2017-03-01T05:24:25.778Z,0
2017-03-01T05:25:35.710Z,0
2017-03-01T05:26:46.016Z,0
2017-03-01T05:27:56.722Z,0
2017-03-01T05:29:07.438Z,0
2017-03-01T05:30:18.140Z,0
2017-03-01T05:31:28.490Z,0
2017-03-01T05:32:39.227Z,0
2017-03-01T05:33:49.920Z,0
2017-03-01T05:35:00.654Z,0
2017-03-01T05:36:10.958Z,0
2017-03-01T05:37:21.672Z,0
2017-03-01T05:38:31.995Z,0
2017-03-01T05:39:42.704Z,4
2017-03-01T05:40:53.409Z,4
2017-03-01T05:42:04.128Z,4
2017-03-01T05:43:14.422Z,4
2017-03-01T05:44:25.139Z,4
2017-03-01T05:45:35.863Z,4
2017-03-01T05:46:46.574Z,4
2017-03-01T05:47:57.280Z,8
2017-03-01T05:49:07.977Z,4
2017-03-01T05:50:18.721Z,8
2017-03-01T05:51:28.629Z,8
2017-03-01T05:52:39.376Z,8
2017-03-01T05:53:50.087Z,16
2017-03-01T05:55:00.807Z,16
2017-03-01T05:56:11.518Z,16
2017-03-01T05:57:22.244Z,20
2017-03-01T05:58:32.558Z,24
2017-03-01T05:59:43.270Z,28
2017-03-01T06:00:54.041Z,28
2017-03-01T06:02:04.784Z,32
2017-03-01T06:03:15.496Z,36
2017-03-01T06:04:26.227Z,40
2017-03-01T06:05:36.924Z,44
2017-03-01T06:06:47.642Z,52
2017-03-01T06:07:58.361Z,56
2017-03-01T06:09:09.075Z,64
2017-03-01T06:10:19.382Z,72
2017-03-01T06:11:30.083Z,76
2017-03-01T06:12:40.801Z,88
2017-03-01T06:13:51.113Z,88
2017-03-01T06:15:01.838Z,100
2017-03-01T06:16:12.146Z,108
2017-03-01T06:17:22.882Z,120
2017-03-01T06:18:33.697Z,128
2017-03-01T06:19:44.391Z,140
2017-03-01T06:20:54.717Z,148
2017-03-01T06:22:05.427Z,156
2017-03-01T06:23:16.116Z,164
2017-03-01T06:24:26.030Z,168
2017-03-01T06:25:36.330Z,176
2017-03-01T06:26:47.069Z,184
2017-03-01T06:27:57.807Z,192
2017-03-01T06:29:08.504Z,204
2017-03-01T06:30:19.229Z,212
2017-03-01T06:31:29.128Z,228
2017-03-01T06:32:39.446Z,240
2017-03-01T06:33:50.164Z,252
2017-03-01T06:35:00.877Z,264
2017-03-01T06:36:11.584Z,284
2017-03-01T06:37:22.296Z,300
2017-03-01T06:38:33.007Z,312
2017-03-01T06:39:43.722Z,332
2017-03-01T06:40:54.017Z,352
2017-03-01T06:42:04.742Z,384
2017-03-01T06:43:15.442Z,408
2017-03-01T06:44:26.148Z,428
2017-03-01T06:45:36.839Z,448
2017-03-01T06:46:47.550Z,472
2017-03-01T06:47:58.255Z,492
2017-03-01T06:49:08.953Z,524
2017-03-01T06:50:19.655Z,552
2017-03-01T06:51:30.349Z,572
2017-03-01T06:52:41.053Z,592
2017-03-01T06:53:51.764Z,608
2017-03-01T06:55:02.460Z,620
2017-03-01T06:56:13.160Z,628
2017-03-01T06:57:23.465Z,636
2017-03-01T06:58:34.188Z,648
2017-03-01T06:59:44.904Z,676
2017-03-01T07:00:55.616Z,724
2017-03-01T07:02:05.909Z,792
2017-03-01T07:03:16.609Z,872
2017-03-01T07:04:27.331Z,948
2017-03-01T07:05:37.640Z,1008
2017-03-01T07:06:48.338Z,1056
2017-03-01T07:07:59.046Z,1080
2017-03-01T07:09:09.351Z,1128
2017-03-01T07:10:19.664Z,1176
2017-03-01T07:11:29.977Z,1228
2017-03-01T07:12:40.697Z,1296
2017-03-01T07:13:51.418Z,1340
2017-03-01T07:15:02.145Z,1352
2017-03-01T07:16:12.461Z,1344
2017-03-01T07:17:22.779Z,1416
2017-03-01T07:18:33.085Z,1528
2017-03-01T07:19:43.782Z,1636
2017-03-01T07:20:54.089Z,1728
2017-03-01T07:22:04.799Z,1760
2017-03-01T07:23:15.493Z,1756
2017-03-01T07:24:25.418Z,1724
2017-03-01T07:25:36.159Z,1768
2017-03-01T07:26:46.866Z,1788
2017-03-01T07:27:57.558Z,1788
2017-03-01T07:29:08.277Z,1812
2017-03-01T07:30:18.971Z,1840
2017-03-01T07:31:29.277Z,1848
2017-03-01T07:32:39.604Z,1872
2017-03-01T07:33:50.317Z,1888
2017-03-01T07:35:01.027Z,1896
2017-03-01T07:36:11.358Z,1932
2017-03-01T07:37:22.076Z,1924
2017-03-01T07:38:32.802Z,1932
2017-03-01T07:39:42.725Z,1968
2017-03-01T07:40:53.041Z,2048
2017-03-01T07:42:03.755Z,2152
2017-03-01T07:43:14.463Z,2220
2017-03-01T07:44:24.801Z,2308
2017-03-01T07:45:35.107Z,2444
2017-03-01T07:46:45.839Z,2584
2017-03-01T07:47:56.545Z,2620
2017-03-01T07:49:07.264Z,2672
2017-03-01T07:50:17.973Z,2708
2017-03-01T07:51:28.676Z,2800
2017-03-01T07:52:39.392Z,2892
2017-03-01T07:53:50.095Z,2988
2017-03-01T07:55:00.795Z,3180
2017-03-01T07:56:11.109Z,3348
2017-03-01T07:57:21.830Z,3492
2017-03-01T07:58:32.551Z,3632
2017-03-01T07:59:43.263Z,3776
2017-03-01T08:00:53.970Z,3896
2017-03-01T08:02:04.663Z,3980
2017-03-01T08:03:15.373Z,4064
2017-03-01T08:04:26.101Z,4128
2017-03-01T08:05:36.808Z,4140
2017-03-01T08:06:47.502Z,4152
2017-03-01T08:07:58.209Z,4244
2017-03-01T08:09:08.129Z,4336
2017-03-01T08:10:18.834Z,4380
2017-03-01T08:11:29.553Z,4488
2017-03-01T08:12:39.858Z,4552
2017-03-01T08:13:50.563Z,4584
2017-03-01T08:15:01.268Z,4628
2017-03-01T08:16:11.973Z,4524
2017-03-01T08:17:22.300Z,4496
2017-03-01T08:18:32.627Z,4444
2017-03-01T08:19:42.932Z,4316
2017-03-01T08:20:53.674Z,4344
2017-03-01T08:22:04.383Z,4384
2017-03-01T08:23:15.094Z,4196
2017-03-01T08:24:25.789Z,4188
2017-03-01T08:25:36.497Z,4236
2017-03-01T08:26:47.212Z,4180
2017-03-01T08:27:57.521Z,4132
2017-03-01T08:29:08.225Z,4120
2017-03-01T08:30:18.921Z,4176
2017-03-01T08:31:29.242Z,4144
2017-03-01T08:32:39.977Z,4096
2017-03-01T08:33:50.702Z,4108
2017-03-01T08:35:01.427Z,4084
2017-03-01T08:36:12.119Z,4140
2017-03-01T08:37:22.812Z,4124
2017-03-01T08:38:33.107Z,4132
2017-03-01T08:39:43.421Z,4136
2017-03-01T08:40:52.933Z,4136
2017-03-01T08:42:03.243Z,4056
2017-03-01T08:43:13.942Z,4004
2017-03-01T08:44:24.266Z,3980
2017-03-01T08:45:34.994Z,3956
2017-03-01T08:46:45.705Z,3932
2017-03-01T08:47:55.628Z,3908
2017-03-01T08:49:05.941Z,3912
2017-03-01T08:50:16.650Z,3960
2017-03-01T08:51:27.361Z,4012
2017-03-01T08:52:37.690Z,4096
2017-03-01T08:53:48.395Z,4236
2017-03-01T08:54:59.108Z,4396
2017-03-01T08:56:09.828Z,4504
2017-03-01T08:57:20.133Z,4604
2017-03-01T08:58:30.855Z,4684
2017-03-01T08:59:41.586Z,4808
2017-03-01T09:00:52.285Z,4976
2017-03-01T09:02:03.000Z,5096
2017-03-01T09:03:13.694Z,5028
2017-03-01T09:04:23.998Z,4880
2017-03-01T09:05:34.712Z,4864
2017-03-01T09:06:45.435Z,4956
2017-03-01T09:07:56.165Z,5028
2017-03-01T09:09:06.873Z,5196
2017-03-01T09:10:17.567Z,5280
2017-03-01T09:11:28.311Z,5304
2017-03-01T09:12:39.035Z,5452
2017-03-01T09:13:49.747Z,5632
2017-03-01T09:15:00.457Z,5852
2017-03-01T09:16:11.171Z,6004
2017-03-01T09:17:21.895Z,6148
2017-03-01T09:18:32.602Z,6224
2017-03-01T09:19:43.297Z,6208
2017-03-01T09:20:53.212Z,6228
2017-03-01T09:22:02.724Z,6204
2017-03-01T09:23:13.415Z,6088
2017-03-01T09:24:23.746Z,5948
2017-03-01T09:25:34.466Z,6032
2017-03-01T09:26:44.772Z,6340
2017-03-01T09:27:55.489Z,6756
2017-03-01T09:29:05.794Z,6884
2017-03-01T09:30:15.701Z,6668
2017-03-01T09:31:26.009Z,6604
2017-03-01T09:32:36.720Z,6644
2017-03-01T09:33:46.639Z,6684
2017-03-01T09:34:56.957Z,6616
2017-03-01T09:36:07.681Z,6592
2017-03-01T09:37:18.394Z,6648
2017-03-01T09:38:28.720Z,6748
2017-03-01T09:39:39.042Z,6912
2017-03-01T09:40:49.761Z,7080
2017-03-01T09:42:00.491Z,7224
2017-03-01T09:43:11.190Z,7264
2017-03-01T09:44:21.805Z,7224
2017-03-01T09:45:32.509Z,7144
2017-03-01T09:46:43.232Z,7128
2017-03-01T09:47:53.560Z,7192
2017-03-01T09:49:03.861Z,7368
2017-03-01T09:50:13.790Z,7564
2017-03-01T09:51:24.527Z,7472
2017-03-01T09:52:34.856Z,7328
2017-03-01T09:53:45.165Z,7300
2017-03-01T09:54:55.889Z,7296
2017-03-01T09:56:06.204Z,7448
2017-03-01T09:57:16.900Z,7536
2017-03-01T09:58:27.218Z,7456
2017-03-01T09:59:37.916Z,7432
2017-03-01T10:00:48.619Z,7492
2017-03-01T10:01:59.352Z,7512
2017-03-01T10:03:10.068Z,7516
2017-03-01T10:04:20.786Z,7752
2017-03-01T10:05:30.727Z,8136
2017-03-01T10:06:41.448Z,8416
2017-03-01T10:07:52.177Z,8708
2017-03-01T10:09:02.089Z,8756
2017-03-01T10:10:12.788Z,8828
2017-03-01T10:11:23.492Z,9056
2017-03-01T10:12:33.415Z,9236
2017-03-01T10:13:43.749Z,9152
2017-03-01T10:14:54.442Z,9032
2017-03-01T10:16:04.346Z,9140
2017-03-01T10:17:14.647Z,9240
2017-03-01T10:18:25.350Z,9220
2017-03-01T10:19:35.675Z,9288
2017-03-01T10:20:46.380Z,9564
2017-03-01T10:21:56.688Z,10012
2017-03-01T10:23:06.195Z,10372
2017-03-01T10:24:16.919Z,10528
2017-03-01T10:25:27.630Z,10508
2017-03-01T10:26:38.358Z,10540
2017-03-01T10:27:48.673Z,10600
2017-03-01T10:28:59.386Z,10664
2017-03-01T10:30:10.110Z,10900
2017-03-01T10:31:20.798Z,11168
2017-03-01T10:32:31.521Z,11272
2017-03-01T10:33:41.864Z,11296
2017-03-01T10:34:52.165Z,11348
2017-03-01T10:36:02.888Z,11416
2017-03-01T10:37:13.606Z,11728
2017-03-01T10:38:23.934Z,12016
2017-03-01T10:39:34.659Z,12012
2017-03-01T10:40:45.350Z,11964
2017-03-01T10:41:56.063Z,12132
2017-03-01T10:43:06.957Z,12356
2017-03-01T10:44:17.663Z,12508
2017-03-01T10:45:28.372Z,12332
2017-03-01T10:46:39.092Z,11900
2017-03-01T10:47:49.819Z,11704
2017-03-01T10:49:00.548Z,11928
2017-03-01T10:50:10.887Z,12052
2017-03-01T10:51:21.215Z,11800
2017-03-01T10:52:31.913Z,11476
2017-03-01T10:53:42.625Z,11320
2017-03-01T10:54:52.951Z,11608
2017-03-01T10:56:03.668Z,12376
2017-03-01T10:57:14.376Z,13432
2017-03-01T10:58:24.689Z,14652
2017-03-01T10:59:35.385Z,15276
2017-03-01T11:00:46.095Z,15308
2017-03-01T11:01:56.437Z,15332
2017-03-01T11:03:07.154Z,14940
2017-03-01T11:04:17.859Z,14428
2017-03-01T11:05:28.603Z,14296
2017-03-01T11:06:39.323Z,14244
2017-03-01T11:07:49.676Z,14056
2017-03-01T11:09:00.385Z,14044
2017-03-01T11:10:10.698Z,14396
2017-03-01T11:11:21.434Z,14924
2017-03-01T11:12:32.158Z,15904
2017-03-01T11:13:42.490Z,16896
2017-03-01T11:14:53.194Z,15880
2017-03-01T11:16:03.551Z,14664
2017-03-01T11:17:14.262Z,13532
2017-03-01T11:18:24.971Z,13332
2017-03-01T11:19:35.290Z,13224
2017-03-01T11:20:45.600Z,13064
2017-03-01T11:21:55.915Z,13100
2017-03-01T11:23:06.617Z,13808
2017-03-01T11:24:17.377Z,14804
2017-03-01T11:25:28.103Z,15124
2017-03-01T11:26:38.811Z,14884
2017-03-01T11:27:49.505Z,16040
2017-03-01T11:29:00.263Z,14012
2017-03-01T11:30:10.561Z,14120
2017-03-01T11:31:21.298Z,14696
2017-03-01T11:32:32.029Z,15136
2017-03-01T11:33:42.739Z,15592
2017-03-01T11:34:53.077Z,16000
2017-03-01T11:36:03.799Z,16180
2017-03-01T11:37:14.114Z,14452
2017-03-01T11:38:24.432Z,13176
2017-03-01T11:39:34.746Z,13252
2017-03-01T11:40:45.452Z,14052
2017-03-01T11:41:56.168Z,14260
2017-03-01T11:43:06.501Z,13284
2017-03-01T11:44:16.834Z,12268
2017-03-01T11:45:27.546Z,12200
2017-03-01T11:46:37.871Z,13276
2017-03-01T11:47:48.180Z,13968
2017-03-01T11:48:58.887Z,13740
2017-03-01T11:50:09.607Z,13680
2017-03-01T11:51:19.921Z,13948
2017-03-01T11:52:30.643Z,14276
2017-03-01T11:53:41.367Z,15136
2017-03-01T11:54:52.096Z,15788
2017-03-01T11:56:02.417Z,16544
2017-03-01T11:57:12.745Z,16544
2017-03-01T11:58:23.062Z,16576
2017-03-01T11:59:32.976Z,16044
2017-03-01T12:00:43.709Z,15444
2017-03-01T12:01:54.430Z,15316
2017-03-01T12:03:04.339Z,15268
2017-03-01T12:04:14.677Z,15292
2017-03-01T12:05:25.009Z,14920
2017-03-01T12:06:35.332Z,14328
2017-03-01T12:07:46.046Z,13880
2017-03-01T12:08:56.362Z,15180
2017-03-01T12:10:06.693Z,15684
2017-03-01T12:11:17.425Z,18944
2017-03-01T12:12:27.727Z,27296
2017-03-01T12:13:38.069Z,22720
2017-03-01T12:14:48.777Z,25664
2017-03-01T12:15:59.100Z,29792
2017-03-01T12:17:09.825Z,27232
2017-03-01T12:18:20.546Z,30240
2017-03-01T12:19:31.265Z,31200
2017-03-01T12:20:41.594Z,28544
2017-03-01T12:21:51.514Z,27040
2017-03-01T12:23:01.831Z,17824
2017-03-01T12:24:12.556Z,16800
2017-03-01T12:25:23.288Z,16416
2017-03-01T12:26:33.602Z,15940
2017-03-01T12:27:43.941Z,15280
2017-03-01T12:28:54.649Z,14796
2017-03-01T12:30:04.575Z,14396
2017-03-01T12:31:14.913Z,14092
2017-03-01T12:32:24.872Z,13876
2017-03-01T12:33:35.596Z,13632
2017-03-01T12:34:46.295Z,13376
2017-03-01T12:35:56.212Z,13216
2017-03-01T12:37:06.945Z,13020
2017-03-01T12:38:17.683Z,12824
2017-03-01T12:39:28.387Z,12704
2017-03-01T12:40:38.693Z,12624
2017-03-01T12:41:49.010Z,12608
2017-03-01T12:42:59.330Z,12500
2017-03-01T12:44:10.047Z,12424
2017-03-01T12:45:20.770Z,12440
2017-03-01T12:46:31.074Z,12700
2017-03-01T12:47:40.620Z,12756
2017-03-01T12:48:50.934Z,12764
2017-03-01T12:50:01.640Z,12776
2017-03-01T12:51:12.380Z,12644
2017-03-01T12:52:21.919Z,12432
2017-03-01T12:53:31.859Z,12224
2017-03-01T12:54:42.597Z,12004
2017-03-01T12:55:53.294Z,11852
2017-03-01T12:57:03.616Z,11852
2017-03-01T12:58:14.372Z,11892
2017-03-01T12:59:24.311Z,11944
2017-03-01T13:00:34.624Z,12044
2017-03-01T13:01:45.341Z,12276
2017-03-01T13:02:56.059Z,12476
2017-03-01T13:04:06.766Z,12500
2017-03-01T13:05:17.498Z,12260
2017-03-01T13:06:27.809Z,11848
2017-03-01T13:07:38.133Z,11328
2017-03-01T13:08:48.448Z,10820
2017-03-01T13:10:01.162Z,10292
2017-03-01T13:11:11.889Z,9752
2017-03-01T13:12:22.604Z,9256
2017-03-01T13:13:33.323Z,8840
2017-03-01T13:14:44.023Z,8456
2017-03-01T13:15:53.160Z,8120
2017-03-01T13:17:03.488Z,7772
2017-03-01T13:18:13.821Z,7388
2017-03-01T13:19:24.530Z,6992
2017-03-01T13:20:35.232Z,6760
2017-03-01T13:21:45.941Z,6768
2017-03-01T13:22:56.655Z,6968
2017-03-01T13:24:07.364Z,7240
2017-03-01T13:25:17.675Z,7512
2017-03-01T13:26:28.394Z,7704
2017-03-01T13:27:39.104Z,7836
2017-03-01T13:28:49.824Z,7892
2017-03-01T13:30:00.547Z,7900
2017-03-01T13:31:11.265Z,7904
2017-03-01T13:32:21.973Z,7872
2017-03-01T13:33:32.700Z,7836
2017-03-01T13:34:43.426Z,7828
2017-03-01T13:35:54.140Z,7860
2017-03-01T13:37:04.845Z,7908
2017-03-01T13:38:15.580Z,7980
2017-03-01T13:39:26.288Z,8036
2017-03-01T13:40:36.597Z,8064
2017-03-01T13:41:47.331Z,8056
2017-03-01T13:42:56.847Z,8056
2017-03-01T13:44:07.570Z,8068
2017-03-01T13:45:17.488Z,8068
2017-03-01T13:46:27.785Z,8088
2017-03-01T13:47:38.115Z,8164
2017-03-01T13:48:48.827Z,8240
2017-03-01T13:49:58.761Z,8288
2017-03-01T13:51:09.496Z,8320
2017-03-01T13:52:19.804Z,8352
2017-03-01T13:53:29.700Z,8368
2017-03-01T13:54:39.622Z,8364
2017-03-01T13:55:50.317Z,8348
2017-03-01T13:57:00.626Z,8320
2017-03-01T13:58:11.343Z,8320
2017-03-01T13:59:21.680Z,8340
2017-03-01T14:00:32.395Z,8400
2017-03-01T14:01:42.716Z,8500
2017-03-01T14:02:53.410Z,8576
2017-03-01T14:04:03.728Z,8576
2017-03-01T14:05:14.041Z,8508
2017-03-01T14:06:24.768Z,8464
2017-03-01T14:07:35.488Z,8460
2017-03-01T14:08:46.202Z,8436
2017-03-01T14:09:56.925Z,8408
2017-03-01T14:11:07.622Z,8352
2017-03-01T14:12:17.536Z,8308
2017-03-01T14:13:28.263Z,8284
2017-03-01T14:14:38.568Z,8220
2017-03-01T14:15:48.499Z,8088
2017-03-01T14:16:59.218Z,7880
2017-03-01T14:18:09.922Z,7644
2017-03-01T14:19:20.238Z,7428
2017-03-01T14:20:30.950Z,7320
2017-03-01T14:21:41.266Z,7284
2017-03-01T14:22:51.599Z,7240
2017-03-01T14:24:02.297Z,7128
2017-03-01T14:25:12.612Z,6940
2017-03-01T14:26:23.321Z,6748
2017-03-01T14:27:33.653Z,6624
2017-03-01T14:28:43.954Z,6472
2017-03-01T14:29:54.658Z,6392
2017-03-01T14:31:05.358Z,6340
2017-03-01T14:32:15.266Z,6184
2017-03-01T14:33:25.580Z,5996
2017-03-01T14:34:36.311Z,5880
2017-03-01T14:35:47.053Z,5824
2017-03-01T14:36:57.373Z,5988
2017-03-01T14:38:08.069Z,6140
2017-03-01T14:39:18.397Z,6104
2017-03-01T14:40:28.727Z,6012
2017-03-01T14:41:39.047Z,5880
2017-03-01T14:42:49.365Z,5716
2017-03-01T14:44:00.078Z,5596
2017-03-01T14:45:10.390Z,5484
2017-03-01T14:46:20.305Z,5352
2017-03-01T14:47:31.003Z,5268
2017-03-01T14:48:40.949Z,5252
2017-03-01T14:49:51.263Z,5228
2017-03-01T14:51:01.581Z,5212
2017-03-01T14:52:11.895Z,5200
2017-03-01T14:53:22.602Z,5032
2017-03-01T14:54:33.322Z,4784
2017-03-01T14:55:43.629Z,4508
2017-03-01T14:56:53.933Z,4272
2017-03-01T14:58:04.652Z,4084
2017-03-01T14:59:15.398Z,3920
2017-03-01T15:00:26.114Z,3752
2017-03-01T15:01:36.814Z,3596
2017-03-01T15:02:47.519Z,3460
2017-03-01T15:03:57.841Z,3324
2017-03-01T15:05:08.545Z,3192
2017-03-01T15:06:18.881Z,3068
2017-03-01T15:07:29.182Z,2968
2017-03-01T15:08:39.902Z,2892
2017-03-01T15:09:50.617Z,2832
2017-03-01T15:11:01.325Z,2772
2017-03-01T15:12:12.038Z,2712
2017-03-01T15:13:22.348Z,2660
2017-03-01T15:14:33.057Z,2608
2017-03-01T15:15:43.773Z,2560
2017-03-01T15:16:53.284Z,2536
2017-03-01T15:18:03.992Z,2540
2017-03-01T15:19:14.687Z,2568
2017-03-01T15:20:24.615Z,2612
2017-03-01T15:21:34.909Z,2640
2017-03-01T15:22:45.617Z,2620
2017-03-01T15:23:56.316Z,2544
2017-03-01T15:25:07.029Z,2448
2017-03-01T15:26:17.749Z,2380
2017-03-01T15:27:27.669Z,2324
2017-03-01T15:28:38.390Z,2256
2017-03-01T15:29:48.698Z,2172
2017-03-01T15:31:01.417Z,2084
2017-03-01T15:32:12.112Z,1996
2017-03-01T15:33:22.435Z,1904
2017-03-01T15:34:33.132Z,1824
2017-03-01T15:35:43.437Z,1752
2017-03-01T15:36:53.759Z,1692
2017-03-01T15:38:04.471Z,1648
2017-03-01T15:39:15.216Z,1612
2017-03-01T15:40:25.545Z,1584
2017-03-01T15:41:36.275Z,1560
2017-03-01T15:42:46.999Z,1536
2017-03-01T15:43:57.342Z,1500
2017-03-01T15:45:08.040Z,1468
2017-03-01T15:46:18.364Z,1436
2017-03-01T15:47:29.064Z,1400
2017-03-01T15:48:41.469Z,1364
2017-03-01T15:49:51.768Z,1332
2017-03-01T15:51:02.477Z,1304
2017-03-01T15:52:12.784Z,1284
2017-03-01T15:53:23.477Z,1264
2017-03-01T15:54:33.809Z,1232
2017-03-01T15:55:44.105Z,1204
2017-03-01T15:56:54.408Z,1160
2017-03-01T15:58:05.121Z,1128
2017-03-01T15:59:15.817Z,1092
2017-03-01T16:00:26.519Z,1056
2017-03-01T16:01:37.222Z,1020
2017-03-01T16:02:47.549Z,992
2017-03-01T16:03:58.268Z,960
2017-03-01T16:05:08.986Z,928
2017-03-01T16:06:19.682Z,888
2017-03-01T16:07:29.602Z,852
2017-03-01T16:08:39.149Z,812
2017-03-01T16:09:49.857Z,780
2017-03-01T16:11:00.567Z,744
2017-03-01T16:12:10.480Z,708